sensor_id;sensor_type;location;lat;lon;timestamp;temperature;humidity
12885;DHT22;6510;51.362;7.370;2023-04-01T00:01:38;8.10;99.90
12885;DHT22;6510;51.362;7.370;2023-04-01T00:04:03;8.10;99.90
12885;DHT22;6510;51.362;7.370;2023-04-01T00:06:29;8.10;99.90
12885;DHT22;6510;51.362;7.370;2023-04-01T00:08:55;8.10;99.90
12885;DHT22;6510;51.362;7.370;2023-04-01T00:11:20;8.10;99.90
12885;DHT22;6510;51.362;7.370;2023-04-01T00:13:47;8.10;99.90
12885;DHT22;6510;51.362;7.370;2023-04-01T00:16:13;8.10;99.90
12885;DHT22;6510;51.362;7.370;2023-04-01T00:18:39;8.10;99.90
12885;DHT22;6510;51.362;7.370;2023-04-01T00:21:05;8.00;99.90
12885;DHT22;6510;51.362;7.370;2023-04-01T00:23:31;8.10;99.90
12885;DHT22;6510;51.362;7.370;2023-04-01T00:26:02;8.10;99.90
12885;DHT22;6510;51.362;7.370;2023-04-01T00:28:28;8.10;99.90
12885;DHT22;6510;51.362;7.370;2023-04-01T00:30:54;8.10;99.90
12885;DHT22;6510;51.362;7.370;2023-04-01T00:33:19;8.10;99.90
12885;DHT22;6510;51.362;7.370;2023-04-01T00:35:45;8.10;99.90
12885;DHT22;6510;51.362;7.370;2023-04-01T00:38:11;8.10;99.90
12885;DHT22;6510;51.362;7.370;2023-04-01T00:40:40;8.10;99.90
12885;DHT22;6510;51.362;7.370;2023-04-01T00:43:18;8.00;99.90
12885;DHT22;6510;51.362;7.370;2023-04-01T00:45:46;8.00;99.90
12885;DHT22;6510;51.362;7.370;2023-04-01T00:48:19;8.00;99.90
12885;DHT22;6510;51.362;7.370;2023-04-01T00:50:56;8.00;99.90
12885;DHT22;6510;51.362;7.370;2023-04-01T00:53:23;7.90;99.90
12885;DHT22;6510;51.362;7.370;2023-04-01T00:55:57;7.90;99.90
12885;DHT22;6510;51.362;7.370;2023-04-01T00:58:25;7.90;99.90
12885;DHT22;6510;51.362;7.370;2023-04-01T01:00:53;8.00;99.90
12885;DHT22;6510;51.362;7.370;2023-04-01T01:03:20;8.00;99.90
12885;DHT22;6510;51.362;7.370;2023-04-01T01:11:37;8.00;99.90
12885;DHT22;6510;51.362;7.370;2023-04-01T01:14:39;8.00;99.90
12885;DHT22;6510;51.362;7.370;2023-04-01T01:20:41;8.00;99.90
12885;DHT22;6510;51.362;7.370;2023-04-01T01:31:37;8.00;99.90
12885;DHT22;6510;51.362;7.370;2023-04-01T01:34:31;8.00;99.90
12885;DHT22;6510;51.362;7.370;2023-04-01T01:37:05;7.90;99.90
12885;DHT22;6510;51.362;7.370;2023-04-01T01:39:34;7.90;99.90
12885;DHT22;6510;51.362;7.370;2023-04-01T01:42:04;7.90;99.90
12885;DHT22;6510;51.362;7.370;2023-04-01T01:44:32;7.90;99.90
12885;DHT22;6510;51.362;7.370;2023-04-01T01:46:59;7.90;99.90
12885;DHT22;6510;51.362;7.370;2023-04-01T01:49:27;7.90;99.90
12885;DHT22;6510;51.362;7.370;2023-04-01T01:51:56;7.90;99.90
12885;DHT22;6510;51.362;7.370;2023-04-01T01:54:21;7.90;99.90
12885;DHT22;6510;51.362;7.370;2023-04-01T01:56:50;7.90;99.90
12885;DHT22;6510;51.362;7.370;2023-04-01T01:59:19;7.90;99.90
12885;DHT22;6510;51.362;7.370;2023-04-01T02:01:49;7.80;99.90
12885;DHT22;6510;51.362;7.370;2023-04-01T02:04:17;7.90;99.90
12885;DHT22;6510;51.362;7.370;2023-04-01T02:06:58;7.80;99.90
12885;DHT22;6510;51.362;7.370;2023-04-01T02:09:25;7.80;99.90
12885;DHT22;6510;51.362;7.370;2023-04-01T02:11:57;7.90;99.90
12885;DHT22;6510;51.362;7.370;2023-04-01T02:14:29;7.80;99.90
12885;DHT22;6510;51.362;7.370;2023-04-01T02:17:10;7.80;99.90
12885;DHT22;6510;51.362;7.370;2023-04-01T02:19:57;7.80;99.90
12885;DHT22;6510;51.362;7.370;2023-04-01T02:22:28;7.80;99.90
12885;DHT22;6510;51.362;7.370;2023-04-01T02:24:58;7.80;99.90
12885;DHT22;6510;51.362;7.370;2023-04-01T02:27:24;7.80;99.90
12885;DHT22;6510;51.362;7.370;2023-04-01T02:29:51;7.80;99.90
12885;DHT22;6510;51.362;7.370;2023-04-01T02:32:18;7.80;99.90
12885;DHT22;6510;51.362;7.370;2023-04-01T02:34:45;7.80;99.90
12885;DHT22;6510;51.362;7.370;2023-04-01T02:37:12;7.80;99.90
12885;DHT22;6510;51.362;7.370;2023-04-01T02:39:38;7.80;99.90
12885;DHT22;6510;51.362;7.370;2023-04-01T02:42:04;7.80;99.90
12885;DHT22;6510;51.362;7.370;2023-04-01T02:44:29;7.80;99.90
12885;DHT22;6510;51.362;7.370;2023-04-01T02:46:55;7.80;99.90
12885;DHT22;6510;51.362;7.370;2023-04-01T02:49:21;7.80;99.90
12885;DHT22;6510;51.362;7.370;2023-04-01T02:51:46;7.80;99.90
12885;DHT22;6510;51.362;7.370;2023-04-01T02:54:12;7.80;99.90
12885;DHT22;6510;51.362;7.370;2023-04-01T02:56:38;7.80;99.90
12885;DHT22;6510;51.362;7.370;2023-04-01T02:59:03;7.80;99.90
12885;DHT22;6510;51.362;7.370;2023-04-01T03:01:29;7.80;99.90
12885;DHT22;6510;51.362;7.370;2023-04-01T03:03:55;7.80;99.90
12885;DHT22;6510;51.362;7.370;2023-04-01T03:06:21;7.80;99.90
12885;DHT22;6510;51.362;7.370;2023-04-01T03:08:46;7.80;99.90
12885;DHT22;6510;51.362;7.370;2023-04-01T03:11:12;7.80;99.90
12885;DHT22;6510;51.362;7.370;2023-04-01T03:13:38;7.70;99.90
12885;DHT22;6510;51.362;7.370;2023-04-01T03:16:04;7.70;99.90
12885;DHT22;6510;51.362;7.370;2023-04-01T03:18:30;7.70;99.90
12885;DHT22;6510;51.362;7.370;2023-04-01T03:20:55;7.70;99.90
12885;DHT22;6510;51.362;7.370;2023-04-01T03:23:21;7.70;99.90
12885;DHT22;6510;51.362;7.370;2023-04-01T03:25:47;7.70;99.90
12885;DHT22;6510;51.362;7.370;2023-04-01T03:28:13;7.70;99.90
12885;DHT22;6510;51.362;7.370;2023-04-01T03:30:39;7.60;99.90
12885;DHT22;6510;51.362;7.370;2023-04-01T03:33:06;7.60;99.90
12885;DHT22;6510;51.362;7.370;2023-04-01T03:35:32;7.60;99.90
12885;DHT22;6510;51.362;7.370;2023-04-01T03:37:58;7.60;99.90
12885;DHT22;6510;51.362;7.370;2023-04-01T03:40:23;7.60;99.90
12885;DHT22;6510;51.362;7.370;2023-04-01T03:42:51;7.60;99.90
12885;DHT22;6510;51.362;7.370;2023-04-01T03:45:17;7.60;99.90
12885;DHT22;6510;51.362;7.370;2023-04-01T03:47:43;7.60;99.90
12885;DHT22;6510;51.362;7.370;2023-04-01T03:50:09;7.50;99.90
12885;DHT22;6510;51.362;7.370;2023-04-01T03:52:35;7.60;99.90
12885;DHT22;6510;51.362;7.370;2023-04-01T03:55:02;7.60;99.90
12885;DHT22;6510;51.362;7.370;2023-04-01T03:57:28;7.60;99.90
12885;DHT22;6510;51.362;7.370;2023-04-01T03:59:55;7.60;99.90
12885;DHT22;6510;51.362;7.370;2023-04-01T04:02:21;7.60;99.90
12885;DHT22;6510;51.362;7.370;2023-04-01T04:04:47;7.60;99.90
12885;DHT22;6510;51.362;7.370;2023-04-01T04:07:12;7.60;99.90
12885;DHT22;6510;51.362;7.370;2023-04-01T04:09:38;7.60;99.90
12885;DHT22;6510;51.362;7.370;2023-04-01T04:12:04;7.60;99.90
12885;DHT22;6510;51.362;7.370;2023-04-01T04:14:31;7.70;99.90
12885;DHT22;6510;51.362;7.370;2023-04-01T04:16:57;7.60;99.90
12885;DHT22;6510;51.362;7.370;2023-04-01T04:19:22;7.70;99.90
12885;DHT22;6510;51.362;7.370;2023-04-01T04:21:48;7.70;99.90
12885;DHT22;6510;51.362;7.370;2023-04-01T04:24:13;7.70;99.90
12885;DHT22;6510;51.362;7.370;2023-04-01T04:26:39;7.70;99.90
12885;DHT22;6510;51.362;7.370;2023-04-01T04:29:05;7.70;99.90
12885;DHT22;6510;51.362;7.370;2023-04-01T04:31:30;7.70;99.90
12885;DHT22;6510;51.362;7.370;2023-04-01T04:33:56;7.80;99.90
12885;DHT22;6510;51.362;7.370;2023-04-01T04:36:23;7.70;99.90
12885;DHT22;6510;51.362;7.370;2023-04-01T04:38:49;7.80;99.90
12885;DHT22;6510;51.362;7.370;2023-04-01T04:41:16;7.80;99.90
12885;DHT22;6510;51.362;7.370;2023-04-01T04:43:52;7.80;99.90
12885;DHT22;6510;51.362;7.370;2023-04-01T04:46:19;7.80;99.90
12885;DHT22;6510;51.362;7.370;2023-04-01T04:48:45;7.80;99.90
12885;DHT22;6510;51.362;7.370;2023-04-01T04:51:16;7.80;99.90
12885;DHT22;6510;51.362;7.370;2023-04-01T04:53:42;7.80;99.90
12885;DHT22;6510;51.362;7.370;2023-04-01T04:56:07;7.80;99.90
12885;DHT22;6510;51.362;7.370;2023-04-01T04:58:33;7.80;99.90
12885;DHT22;6510;51.362;7.370;2023-04-01T05:01:04;7.80;99.90
12885;DHT22;6510;51.362;7.370;2023-04-01T05:03:30;7.80;99.90
12885;DHT22;6510;51.362;7.370;2023-04-01T05:05:56;7.80;99.90
12885;DHT22;6510;51.362;7.370;2023-04-01T05:08:24;7.90;99.90
12885;DHT22;6510;51.362;7.370;2023-04-01T05:10:50;7.80;99.90
12885;DHT22;6510;51.362;7.370;2023-04-01T05:13:16;7.80;99.90
12885;DHT22;6510;51.362;7.370;2023-04-01T05:15:41;7.80;99.90
12885;DHT22;6510;51.362;7.370;2023-04-01T05:18:07;7.80;99.90
12885;DHT22;6510;51.362;7.370;2023-04-01T05:20:32;7.90;99.90
12885;DHT22;6510;51.362;7.370;2023-04-01T05:22:59;7.80;99.90
12885;DHT22;6510;51.362;7.370;2023-04-01T05:25:25;7.80;99.90
12885;DHT22;6510;51.362;7.370;2023-04-01T05:27:51;7.90;99.90
12885;DHT22;6510;51.362;7.370;2023-04-01T05:30:17;7.90;99.90
12885;DHT22;6510;51.362;7.370;2023-04-01T05:32:43;7.90;99.90
12885;DHT22;6510;51.362;7.370;2023-04-01T05:35:09;7.90;99.90
12885;DHT22;6510;51.362;7.370;2023-04-01T05:37:35;7.90;99.90
12885;DHT22;6510;51.362;7.370;2023-04-01T05:40:01;7.90;99.90
12885;DHT22;6510;51.362;7.370;2023-04-01T05:42:27;7.90;99.90
12885;DHT22;6510;51.362;7.370;2023-04-01T05:44:53;8.00;99.90
12885;DHT22;6510;51.362;7.370;2023-04-01T05:47:18;8.00;99.90
12885;DHT22;6510;51.362;7.370;2023-04-01T05:49:44;8.00;99.90
12885;DHT22;6510;51.362;7.370;2023-04-01T05:52:10;8.00;99.90
12885;DHT22;6510;51.362;7.370;2023-04-01T05:54:35;8.00;99.90
12885;DHT22;6510;51.362;7.370;2023-04-01T05:57:01;8.00;99.90
12885;DHT22;6510;51.362;7.370;2023-04-01T05:59:27;8.00;99.90
12885;DHT22;6510;51.362;7.370;2023-04-01T06:01:52;8.00;99.90
12885;DHT22;6510;51.362;7.370;2023-04-01T06:04:18;8.00;99.90
12885;DHT22;6510;51.362;7.370;2023-04-01T06:06:44;8.10;99.90
12885;DHT22;6510;51.362;7.370;2023-04-01T06:09:15;8.00;99.90
12885;DHT22;6510;51.362;7.370;2023-04-01T06:18:28;8.10;99.90
12885;DHT22;6510;51.362;7.370;2023-04-01T06:23:05;8.10;99.90
12885;DHT22;6510;51.362;7.370;2023-04-01T06:28:38;8.10;99.90
12885;DHT22;6510;51.362;7.370;2023-04-01T06:34:00;8.10;99.90
12885;DHT22;6510;51.362;7.370;2023-04-01T06:47:28;8.20;99.90
12885;DHT22;6510;51.362;7.370;2023-04-01T06:55:27;8.20;99.90
12885;DHT22;6510;51.362;7.370;2023-04-01T06:57:58;8.20;99.90
12885;DHT22;6510;51.362;7.370;2023-04-01T07:00:35;8.20;99.90
12885;DHT22;6510;51.362;7.370;2023-04-01T07:05:47;8.30;99.90
12885;DHT22;6510;51.362;7.370;2023-04-01T07:08:25;8.30;99.90
12885;DHT22;6510;51.362;7.370;2023-04-01T07:11:01;8.30;99.90
12885;DHT22;6510;51.362;7.370;2023-04-01T07:13:31;8.20;99.90
12885;DHT22;6510;51.362;7.370;2023-04-01T07:18:54;8.20;99.90
12885;DHT22;6510;51.362;7.370;2023-04-01T07:21:33;8.20;99.90
12885;DHT22;6510;51.362;7.370;2023-04-01T07:24:10;8.20;99.90
12885;DHT22;6510;51.362;7.370;2023-04-01T07:26:37;8.30;99.90
12885;DHT22;6510;51.362;7.370;2023-04-01T07:29:09;8.30;99.90
12885;DHT22;6510;51.362;7.370;2023-04-01T07:34:25;8.30;99.90
12885;DHT22;6510;51.362;7.370;2023-04-01T07:39:53;8.30;99.90
12885;DHT22;6510;51.362;7.370;2023-04-01T07:48:14;8.40;99.90
12885;DHT22;6510;51.362;7.370;2023-04-01T07:50:52;8.50;99.90
12885;DHT22;6510;51.362;7.370;2023-04-01T07:56:15;8.60;99.90
12885;DHT22;6510;51.362;7.370;2023-04-01T08:04:55;8.60;99.90
12885;DHT22;6510;51.362;7.370;2023-04-01T08:07:18;8.60;99.90
12885;DHT22;6510;51.362;7.370;2023-04-01T08:15:22;8.50;99.90
12885;DHT22;6510;51.362;7.370;2023-04-01T08:20:45;8.60;99.90
12885;DHT22;6510;51.362;7.370;2023-04-01T08:26:04;8.70;99.90
12885;DHT22;6510;51.362;7.370;2023-04-01T08:29:02;8.70;99.90
12885;DHT22;6510;51.362;7.370;2023-04-01T08:31:37;8.70;99.90
12885;DHT22;6510;51.362;7.370;2023-04-01T08:34:08;8.60;99.90
12885;DHT22;6510;51.362;7.370;2023-04-01T08:36:42;8.60;99.90
12885;DHT22;6510;51.362;7.370;2023-04-01T08:51:05;8.60;99.90
12885;DHT22;6510;51.362;7.370;2023-04-01T08:59:23;8.70;99.90
12885;DHT22;6510;51.362;7.370;2023-04-01T09:02:13;8.70;99.90
12885;DHT22;6510;51.362;7.370;2023-04-01T09:08:10;8.70;99.90
12885;DHT22;6510;51.362;7.370;2023-04-01T09:13:35;8.60;99.90
12885;DHT22;6510;51.362;7.370;2023-04-01T09:16:24;8.60;99.90
12885;DHT22;6510;51.362;7.370;2023-04-01T09:30:39;8.80;99.90
12885;DHT22;6510;51.362;7.370;2023-04-01T09:33:01;8.80;99.90
12885;DHT22;6510;51.362;7.370;2023-04-01T09:40:48;8.70;99.90
12885;DHT22;6510;51.362;7.370;2023-04-01T09:46:09;8.80;99.90
12885;DHT22;6510;51.362;7.370;2023-04-01T09:51:40;8.90;99.90
12885;DHT22;6510;51.362;7.370;2023-04-01T09:54:50;8.90;99.90
12885;DHT22;6510;51.362;7.370;2023-04-01T10:17:44;8.80;99.90
12885;DHT22;6510;51.362;7.370;2023-04-01T10:20:31;8.90;99.90
12885;DHT22;6510;51.362;7.370;2023-04-01T10:29:49;8.90;99.90
12885;DHT22;6510;51.362;7.370;2023-04-01T11:45:37;9.30;99.90
12885;DHT22;6510;51.362;7.370;2023-04-01T11:48:31;9.20;99.90
12885;DHT22;6510;51.362;7.370;2023-04-01T12:04:27;9.20;99.90
12885;DHT22;6510;51.362;7.370;2023-04-01T12:07:06;9.20;99.90
12885;DHT22;6510;51.362;7.370;2023-04-01T12:10:13;9.30;99.90
12885;DHT22;6510;51.362;7.370;2023-04-01T12:20:57;9.30;99.90
12885;DHT22;6510;51.362;7.370;2023-04-01T12:26:47;9.10;99.90
12885;DHT22;6510;51.362;7.370;2023-04-01T12:35:04;9.30;99.90
12885;DHT22;6510;51.362;7.370;2023-04-01T12:37:39;9.30;99.90
12885;DHT22;6510;51.362;7.370;2023-04-01T12:45:33;9.10;99.90
12885;DHT22;6510;51.362;7.370;2023-04-01T12:55:59;9.30;99.90
12885;DHT22;6510;51.362;7.370;2023-04-01T12:58:49;9.20;99.90
12885;DHT22;6510;51.362;7.370;2023-04-01T13:01:25;9.30;99.90
12885;DHT22;6510;51.362;7.370;2023-04-01T13:17:45;9.30;99.90
12885;DHT22;6510;51.362;7.370;2023-04-01T13:23:17;9.50;99.90
12885;DHT22;6510;51.362;7.370;2023-04-01T13:25:57;9.60;99.90
12885;DHT22;6510;51.362;7.370;2023-04-01T13:28:32;9.80;99.90
12885;DHT22;6510;51.362;7.370;2023-04-01T13:33:45;9.70;99.90
12885;DHT22;6510;51.362;7.370;2023-04-01T13:44:49;9.70;99.90
12885;DHT22;6510;51.362;7.370;2023-04-01T13:47:51;9.60;99.90
12885;DHT22;6510;51.362;7.370;2023-04-01T13:50:31;9.50;99.90
12885;DHT22;6510;51.362;7.370;2023-04-01T14:01:15;9.50;99.90
12885;DHT22;6510;51.362;7.370;2023-04-01T14:09:31;9.40;99.90
12885;DHT22;6510;51.362;7.370;2023-04-01T14:17:44;9.40;99.90
12885;DHT22;6510;51.362;7.370;2023-04-01T14:20:47;9.30;99.90
12885;DHT22;6510;51.362;7.370;2023-04-01T14:32:35;9.10;99.90
12885;DHT22;6510;51.362;7.370;2023-04-01T14:40:58;9.10;99.90
12885;DHT22;6510;51.362;7.370;2023-04-01T14:49:43;9.10;99.90
12885;DHT22;6510;51.362;7.370;2023-04-01T14:54:38;9.10;99.90
12885;DHT22;6510;51.362;7.370;2023-04-01T14:57:14;9.10;99.90
12885;DHT22;6510;51.362;7.370;2023-04-01T15:00:14;9.00;99.90
12885;DHT22;6510;51.362;7.370;2023-04-01T15:05:38;9.00;99.90
12885;DHT22;6510;51.362;7.370;2023-04-01T15:08:18;9.10;99.90
12885;DHT22;6510;51.362;7.370;2023-04-01T15:16:41;9.10;99.90
12885;DHT22;6510;51.362;7.370;2023-04-01T15:19:25;9.00;99.90
12885;DHT22;6510;51.362;7.370;2023-04-01T15:30:02;9.10;99.90
12885;DHT22;6510;51.362;7.370;2023-04-01T15:35:39;9.10;99.90
12885;DHT22;6510;51.362;7.370;2023-04-01T15:38:17;9.00;99.90
12885;DHT22;6510;51.362;7.370;2023-04-01T15:41:13;9.10;99.90
12885;DHT22;6510;51.362;7.370;2023-04-01T15:43:49;9.10;99.90
12885;DHT22;6510;51.362;7.370;2023-04-01T15:46:43;9.10;99.90
12885;DHT22;6510;51.362;7.370;2023-04-01T15:57:44;9.10;99.90
12885;DHT22;6510;51.362;7.370;2023-04-01T16:05:42;9.20;99.90
12885;DHT22;6510;51.362;7.370;2023-04-01T16:11:15;9.10;99.90
12885;DHT22;6510;51.362;7.370;2023-04-01T16:16:40;9.20;99.90
12885;DHT22;6510;51.362;7.370;2023-04-01T16:19:26;9.20;99.90
12885;DHT22;6510;51.362;7.370;2023-04-01T16:27:56;9.10;99.90
12885;DHT22;6510;51.362;7.370;2023-04-01T16:30:38;9.10;99.90
12885;DHT22;6510;51.362;7.370;2023-04-01T16:35:59;9.10;99.90
12885;DHT22;6510;51.362;7.370;2023-04-01T16:41:11;9.10;99.90
12885;DHT22;6510;51.362;7.370;2023-04-01T16:43:54;9.00;99.90
12885;DHT22;6510;51.362;7.370;2023-04-01T16:51:44;8.90;99.90
12885;DHT22;6510;51.362;7.370;2023-04-01T16:57:19;8.90;99.90
12885;DHT22;6510;51.362;7.370;2023-04-01T17:02:37;8.90;99.90
12885;DHT22;6510;51.362;7.370;2023-04-01T17:05:10;8.80;99.90
12885;DHT22;6510;51.362;7.370;2023-04-01T17:16:47;8.80;99.90
12885;DHT22;6510;51.362;7.370;2023-04-01T17:24:54;8.80;99.90
12885;DHT22;6510;51.362;7.370;2023-04-01T17:35:31;8.80;99.90
12885;DHT22;6510;51.362;7.370;2023-04-01T17:38:20;8.80;99.90
12885;DHT22;6510;51.362;7.370;2023-04-01T17:44:33;8.80;99.90
12885;DHT22;6510;51.362;7.370;2023-04-01T17:47:13;8.80;99.90
12885;DHT22;6510;51.362;7.370;2023-04-01T17:50:13;8.80;99.90
12885;DHT22;6510;51.362;7.370;2023-04-01T17:55:41;8.70;99.90
12885;DHT22;6510;51.362;7.370;2023-04-01T17:58:21;8.70;99.90
12885;DHT22;6510;51.362;7.370;2023-04-01T18:01:18;8.70;99.90
12885;DHT22;6510;51.362;7.370;2023-04-01T18:09:00;8.70;99.90
12885;DHT22;6510;51.362;7.370;2023-04-01T18:17:42;8.80;99.90
12885;DHT22;6510;51.362;7.370;2023-04-01T18:22:41;8.70;99.90
12885;DHT22;6510;51.362;7.370;2023-04-01T18:30:42;8.70;99.90
12885;DHT22;6510;51.362;7.370;2023-04-01T18:33:31;8.70;99.90
12885;DHT22;6510;51.362;7.370;2023-04-01T18:36:14;8.70;99.90
12885;DHT22;6510;51.362;7.370;2023-04-01T18:38:55;8.70;99.90
12885;DHT22;6510;51.362;7.370;2023-04-01T18:44:16;8.70;99.90
12885;DHT22;6510;51.362;7.370;2023-04-01T19:03:40;8.70;99.90
12885;DHT22;6510;51.362;7.370;2023-04-01T19:06:17;8.70;99.90
12885;DHT22;6510;51.362;7.370;2023-04-01T19:08:45;8.70;99.90
12885;DHT22;6510;51.362;7.370;2023-04-01T19:11:40;8.70;99.90
12885;DHT22;6510;51.362;7.370;2023-04-01T19:25:34;8.60;99.90
12885;DHT22;6510;51.362;7.370;2023-04-01T19:30:56;8.70;99.90
12885;DHT22;6510;51.362;7.370;2023-04-01T19:36:26;8.60;99.90
12885;DHT22;6510;51.362;7.370;2023-04-01T19:39:05;8.60;99.90
12885;DHT22;6510;51.362;7.370;2023-04-01T19:41:50;8.60;99.90
12885;DHT22;6510;51.362;7.370;2023-04-01T19:50:09;8.50;99.90
12885;DHT22;6510;51.362;7.370;2023-04-01T19:52:36;8.50;99.90
12885;DHT22;6510;51.362;7.370;2023-04-01T19:55:09;8.50;99.90
12885;DHT22;6510;51.362;7.370;2023-04-01T19:57:48;8.50;99.90
12885;DHT22;6510;51.362;7.370;2023-04-01T20:08:38;8.50;99.90
12885;DHT22;6510;51.362;7.370;2023-04-01T20:16:17;8.50;99.90
12885;DHT22;6510;51.362;7.370;2023-04-01T20:18:56;8.50;99.90
12885;DHT22;6510;51.362;7.370;2023-04-01T20:26:42;8.50;99.90
12885;DHT22;6510;51.362;7.370;2023-04-01T20:29:15;8.40;99.90
12885;DHT22;6510;51.362;7.370;2023-04-01T20:32:05;8.50;99.90
12885;DHT22;6510;51.362;7.370;2023-04-01T20:45:30;8.50;99.90
12885;DHT22;6510;51.362;7.370;2023-04-01T20:53:35;8.50;99.90
12885;DHT22;6510;51.362;7.370;2023-04-01T21:01:41;8.50;99.90
12885;DHT22;6510;51.362;7.370;2023-04-01T21:16:14;8.50;99.90
12885;DHT22;6510;51.362;7.370;2023-04-01T21:24:33;8.50;99.90
12885;DHT22;6510;51.362;7.370;2023-04-01T21:41:17;8.50;99.90
12885;DHT22;6510;51.362;7.370;2023-04-01T21:44:50;8.60;99.90
12885;DHT22;6510;51.362;7.370;2023-04-01T22:00:24;8.20;99.90
12885;DHT22;6510;51.362;7.370;2023-04-01T22:06:17;8.10;99.90
12885;DHT22;6510;51.362;7.370;2023-04-01T22:08:58;8.00;99.90
12885;DHT22;6510;51.362;7.370;2023-04-01T22:16:59;7.90;99.90
12885;DHT22;6510;51.362;7.370;2023-04-01T22:22:45;7.70;99.90
12885;DHT22;6510;51.362;7.370;2023-04-01T22:25:34;7.70;99.90
12885;DHT22;6510;51.362;7.370;2023-04-01T22:28:07;7.60;99.90
12885;DHT22;6510;51.362;7.370;2023-04-01T22:30:39;7.60;99.90
12885;DHT22;6510;51.362;7.370;2023-04-01T22:33:48;7.60;99.90
12885;DHT22;6510;51.362;7.370;2023-04-01T22:42:07;7.50;99.90
12885;DHT22;6510;51.362;7.370;2023-04-01T22:47:51;7.40;99.90
12885;DHT22;6510;51.362;7.370;2023-04-01T22:50:35;7.20;99.90
12885;DHT22;6510;51.362;7.370;2023-04-01T22:53:22;7.30;99.90
12885;DHT22;6510;51.362;7.370;2023-04-01T22:55:51;7.20;99.90
12885;DHT22;6510;51.362;7.370;2023-04-01T22:58:26;7.20;99.90
12885;DHT22;6510;51.362;7.370;2023-04-01T23:01:02;7.10;99.90
12885;DHT22;6510;51.362;7.370;2023-04-01T23:03:33;7.10;99.90
12885;DHT22;6510;51.362;7.370;2023-04-01T23:06:02;7.10;99.90
12885;DHT22;6510;51.362;7.370;2023-04-01T23:16:54;6.90;99.90
12885;DHT22;6510;51.362;7.370;2023-04-01T23:24:44;6.80;99.90
12885;DHT22;6510;51.362;7.370;2023-04-01T23:27:36;6.80;99.90
12885;DHT22;6510;51.362;7.370;2023-04-01T23:30:10;6.70;99.90
12885;DHT22;6510;51.362;7.370;2023-04-01T23:32:51;6.60;99.90
12885;DHT22;6510;51.362;7.370;2023-04-01T23:35:17;6.70;99.90
12885;DHT22;6510;51.362;7.370;2023-04-01T23:37:42;6.60;99.90
12885;DHT22;6510;51.362;7.370;2023-04-01T23:40:12;6.60;99.90
12885;DHT22;6510;51.362;7.370;2023-04-01T23:42:40;6.50;99.90
12885;DHT22;6510;51.362;7.370;2023-04-01T23:45:15;6.60;99.90
12885;DHT22;6510;51.362;7.370;2023-04-01T23:47:48;6.60;99.90
12885;DHT22;6510;51.362;7.370;2023-04-01T23:50:20;6.60;99.90
12885;DHT22;6510;51.362;7.370;2023-04-01T23:52:48;6.50;99.90
12885;DHT22;6510;51.362;7.370;2023-04-01T23:58:01;6.30;99.90
